Time,TemperatureF,DewpointF,PressureIn,WindDirection,WindDirectionDegrees,WindSpeedMPH,WindSpeedGustMPH,Humidity,HourlyPrecipIn,Conditions,Clouds,dailyrainin,SoftwareType,DateUTC
2013-10-08 00:00:00,53.3,44.9,30.05,ENE,58,1.0,2.0,73,0.00,,---,0.39,VWS V14.01,2013-10-08 04:00:00,
2013-10-08 00:01:00,53.3,44.9,30.05,ENE,58,0.0,1.0,73,0.00,,---,0.00,VWS V14.01,2013-10-08 04:01:00,
2013-10-08 00:02:00,53.3,44.5,30.05,ENE,58,0.0,1.0,72,0.00,,---,0.00,VWS V14.01,2013-10-08 04:02:00,
2013-10-08 00:05:00,53.3,44.9,30.06,ENE,58,0.0,2.0,73,0.00,,---,0.00,VWS V14.01,2013-10-08 04:05:00,
2013-10-08 00:07:00,53.3,44.9,30.05,NNW,341,1.0,4.0,73,0.00,,---,0.00,VWS V14.01,2013-10-08 04:07:00,
2013-10-08 00:10:00,53.3,44.5,30.05,North,360,1.0,4.0,72,0.00,,---,0.00,VWS V14.01,2013-10-08 04:10:00,
2013-10-08 00:12:00,53.3,44.5,30.06,North,355,0.0,3.0,72,0.00,,---,0.00,VWS V14.01,2013-10-08 04:12:00,
2013-10-08 00:15:00,53.3,44.5,30.06,West,261,4.0,4.0,72,0.00,,---,0.00,VWS V14.01,2013-10-08 04:15:00,
2013-10-08 00:17:00,53.3,44.5,30.06,NE,47,1.0,6.0,72,0.00,,---,0.00,VWS V14.01,2013-10-08 04:17:00,
2013-10-08 00:20:00,53.5,45.1,30.05,NE,47,1.0,6.0,73,0.00,,---,0.00,VWS V14.01,2013-10-08 04:20:00,
2013-10-08 00:22:00,53.3,44.9,30.06,NNW,340,1.0,2.0,73,0.00,,---,0.00,VWS V14.01,2013-10-08 04:22:00,
2013-10-08 00:25:00,53.3,44.5,30.06,ENE,68,0.0,3.0,72,0.00,,---,0.00,VWS V14.01,2013-10-08 04:25:00,
2013-10-08 00:27:00,53.3,44.9,30.06,WSW,248,0.0,2.0,73,0.00,,---,0.00,VWS V14.01,2013-10-08 04:27:00,
2013-10-08 00:30:00,53.3,44.9,30.06,WSW,248,0.0,2.0,73,0.00,,---,0.00,VWS V14.01,2013-10-08 04:30:00,
2013-10-08 00:32:00,53.3,45.2,30.06,WSW,248,0.0,0.0,74,0.00,,---,0.00,VWS V14.01,2013-10-08 04:32:00,
2013-10-08 00:35:00,53.3,45.2,30.06,WSW,248,0.0,1.0,74,0.00,,---,0.00,VWS V14.01,2013-10-08 04:35:00,
2013-10-08 00:37:00,53.2,45.1,30.06,NE,51,0.0,4.0,74,0.00,,---,0.00,VWS V14.01,2013-10-08 04:37:00,
2013-10-08 00:40:00,53.2,45.1,30.06,NNW,331,0.0,4.0,74,0.00,,---,0.00,VWS V14.01,2013-10-08 04:40:00,
2013-10-08 00:42:00,53.1,45.0,30.06,NNW,331,0.0,1.0,74,0.00,,---,0.00,VWS V14.01,2013-10-08 04:42:00,
2013-10-08 00:45:00,53.1,45.4,30.06,NNW,331,0.0,1.0,75,0.00,,---,0.00,VWS V14.01,2013-10-08 04:45:00,
2013-10-08 00:47:00,52.9,45.2,30.06,East,101,0.0,2.0,75,0.00,,---,0.00,VWS V14.01,2013-10-08 04:47:00,
2013-10-08 00:50:00,52.8,44.4,30.06,NNW,344,0.0,4.0,73,0.00,,---,0.00,VWS V14.01,2013-10-08 04:50:00,
2013-10-08 00:52:00,52.8,43.7,30.07,NNW,346,1.0,3.0,71,0.00,,---,0.00,VWS V14.01,2013-10-08 04:52:00,
2013-10-08 00:55:00,52.8,44.8,30.06,NW,314,1.0,3.0,74,0.00,,---,0.00,VWS V14.01,2013-10-08 04:55:00,
2013-10-08 00:57:00,52.8,44.4,30.06,NW,324,1.0,3.0,73,0.00,,---,0.00,VWS V14.01,2013-10-08 04:57:00,
2013-10-08 01:00:00,52.8,44.4,30.06,West,265,3.0,3.0,73,0.00,,---,0.00,VWS V14.01,2013-10-08 05:00:00,
2013-10-08 01:02:00,52.8,44.8,30.06,NE,46,0.0,3.0,74,0.00,,---,0.00,VWS V14.01,2013-10-08 05:02:00,
2013-10-08 01:05:00,52.8,44.8,30.06,NE,46,0.0,3.0,74,0.00,,---,0.00,VWS V14.01,2013-10-08 05:05:00,
2013-10-08 01:07:00,52.8,44.8,30.06,NE,44,0.0,0.0,74,0.00,,---,0.00,VWS V14.01,2013-10-08 05:07:00,
2013-10-08 01:10:00,52.6,44.6,30.06,NE,43,0.0,1.0,74,0.00,,---,0.00,VWS V14.01,2013-10-08 05:10:00,
2013-10-08 01:12:00,52.6,44.6,30.06,NE,43,0.0,1.0,74,0.00,,---,0.00,VWS V14.01,2013-10-08 05:12:00,
2013-10-08 01:15:00,52.5,45.2,30.06,NE,42,0.0,1.0,76,0.00,,---,0.00,VWS V14.01,2013-10-08 05:15:00,
2013-10-08 01:17:00,52.5,44.5,30.06,NE,42,0.0,0.0,74,0.00,,---,0.00,VWS V14.01,2013-10-08 05:17:00,
2013-10-08 01:20:00,52.3,44.6,30.06,NE,42,0.0,0.0,75,0.00,,---,0.00,VWS V14.01,2013-10-08 05:20:00,
2013-10-08 01:22:00,52.2,44.9,30.06,NE,42,0.0,0.0,76,0.00,,---,0.00,VWS V14.01,2013-10-08 05:22:00,
2013-10-08 01:25:00,52.2,44.5,30.06,WNW,294,0.0,1.0,75,0.00,,---,0.00,VWS V14.01,2013-10-08 05:25:00,
2013-10-08 01:27:00,52.0,44.7,30.07,WNW,294,0.0,2.0,76,0.00,,---,0.00,VWS V14.01,2013-10-08 05:27:00,
2013-10-08 01:30:00,52.0,44.7,30.07,NE,54,1.0,3.0,76,0.00,,---,0.00,VWS V14.01,2013-10-08 05:30:00,
2013-10-08 01:32:00,51.9,44.9,30.07,WNW,303,0.0,1.0,77,0.00,,---,0.00,VWS V14.01,2013-10-08 05:32:00,
2013-10-08 01:35:00,51.9,44.2,30.07,WNW,303,0.0,1.0,75,0.00,,---,0.00,VWS V14.01,2013-10-08 05:35:00,
2013-10-08 01:37:00,51.7,44.0,30.07,WNW,303,0.0,1.0,75,0.00,,---,0.00,VWS V14.01,2013-10-08 05:37:00,
2013-10-08 01:40:00,51.7,44.0,30.07,North,10,1.0,2.0,75,0.00,,---,0.00,VWS V14.01,2013-10-08 05:40:00,
2013-10-08 01:42:00,51.7,43.0,30.07,North,10,0.0,1.0,72,0.00,,---,0.00,VWS V14.01,2013-10-08 05:42:00,
2013-10-08 01:45:00,51.7,43.7,30.07,North,10,1.0,1.0,74,0.00,,---,0.00,VWS V14.01,2013-10-08 05:45:00,
2013-10-08 01:47:00,51.7,43.3,30.07,North,10,0.0,1.0,73,0.00,,---,0.00,VWS V14.01,2013-10-08 05:47:00,
2013-10-08 01:50:00,51.7,44.0,30.07,North,10,0.0,1.0,75,0.00,,---,0.00,VWS V14.01,2013-10-08 05:50:00,
2013-10-08 01:52:00,51.7,44.7,30.07,North,10,0.0,1.0,77,0.00,,---,0.00,VWS V14.01,2013-10-08 05:52:00,
2013-10-08 01:55:00,51.7,45.1,30.07,North,10,0.0,1.0,78,0.00,,---,0.00,VWS V14.01,2013-10-08 05:55:00,
2013-10-08 01:57:00,51.7,44.7,30.08,North,10,0.0,0.0,77,0.00,,---,0.00,VWS V14.01,2013-10-08 05:57:00,
2013-10-08 02:00:00,51.6,44.6,30.08,North,10,0.0,0.0,77,0.00,,---,0.00,VWS V14.01,2013-10-08 06:00:00,
2013-10-08 02:02:00,51.6,44.3,30.08,North,10,0.0,0.0,76,0.00,,---,0.00,VWS V14.01,2013-10-08 06:02:00,
2013-10-08 02:05:00,51.4,43.4,30.08,North,10,0.0,0.0,74,0.00,,---,0.00,VWS V14.01,2013-10-08 06:05:00,
2013-10-08 02:07:00,51.4,44.1,30.08,North,10,0.0,0.0,76,0.00,,---,0.00,VWS V14.01,2013-10-08 06:07:00,
2013-10-08 02:10:00,51.3,44.0,30.08,North,10,1.0,1.0,76,0.00,,---,0.00,VWS V14.01,2013-10-08 06:10:00,
2013-10-08 02:12:00,51.1,43.5,30.08,North,10,0.0,1.0,75,0.00,,---,0.00,VWS V14.01,2013-10-08 06:12:00,
2013-10-08 02:15:00,51.1,43.5,30.08,North,10,0.0,1.0,75,0.00,,---,0.00,VWS V14.01,2013-10-08 06:15:00,
2013-10-08 02:17:00,51.0,44.4,30.09,North,10,0.0,0.0,78,0.00,,---,0.00,VWS V14.01,2013-10-08 06:17:00,
2013-10-08 02:20:00,51.0,44.4,30.09,North,10,0.0,0.0,78,0.00,,---,0.00,VWS V14.01,2013-10-08 06:20:00,
2013-10-08 02:22:00,50.8,44.2,30.09,North,10,0.0,0.0,78,0.00,,---,0.00,VWS V14.01,2013-10-08 06:22:00,
2013-10-08 02:25:00,50.8,44.2,30.09,North,10,0.0,0.0,78,0.00,,---,0.00,VWS V14.01,2013-10-08 06:25:00,
2013-10-08 02:27:00,50.7,44.1,30.09,North,10,0.0,0.0,78,0.00,,---,0.00,VWS V14.01,2013-10-08 06:27:00,
2013-10-08 02:30:00,50.5,43.9,30.09,North,10,0.0,0.0,78,0.00,,---,0.00,VWS V14.01,2013-10-08 06:30:00,
2013-10-08 02:33:00,50.4,43.5,30.09,North,10,0.0,0.0,77,0.00,,---,0.00,VWS V14.01,2013-10-08 06:33:00,
2013-10-08 02:35:00,50.4,43.8,30.09,North,10,0.0,0.0,78,0.00,,---,0.00,VWS V14.01,2013-10-08 06:35:00,
2013-10-08 02:38:00,50.2,44.0,30.09,North,10,0.0,0.0,79,0.00,,---,0.00,VWS V14.01,2013-10-08 06:38:00,
2013-10-08 02:40:00,50.1,43.8,30.09,North,10,0.0,0.0,79,0.00,,---,0.00,VWS V14.01,2013-10-08 06:40:00,
2013-10-08 02:43:00,49.9,43.7,30.09,North,10,0.0,0.0,79,0.00,,---,0.00,VWS V14.01,2013-10-08 06:43:00,
2013-10-08 02:45:00,49.9,43.7,30.09,North,10,0.0,0.0,79,0.00,,---,0.00,VWS V14.01,2013-10-08 06:45:00,
2013-10-08 02:48:00,49.8,43.6,30.09,North,10,0.0,0.0,79,0.00,,---,0.00,VWS V14.01,2013-10-08 06:48:00,
2013-10-08 02:50:00,49.6,43.4,30.09,North,10,0.0,0.0,79,0.00,,---,0.00,VWS V14.01,2013-10-08 06:50:00,
2013-10-08 02:53:00,49.5,43.6,30.09,North,10,0.0,0.0,80,0.00,,---,0.00,VWS V14.01,2013-10-08 06:53:00,
2013-10-08 02:55:00,49.5,43.6,30.09,North,10,0.0,0.0,80,0.00,,---,0.00,VWS V14.01,2013-10-08 06:55:00,
2013-10-08 02:58:00,49.4,43.8,30.09,North,10,0.0,0.0,81,0.00,,---,0.00,VWS V14.01,2013-10-08 06:58:00,
2013-10-08 03:00:00,49.2,43.6,30.09,North,10,0.0,0.0,81,0.00,,---,0.00,VWS V14.01,2013-10-08 07:00:00,
2013-10-08 03:03:00,49.1,43.2,30.09,North,10,0.0,0.0,80,0.00,,---,0.00,VWS V14.01,2013-10-08 07:03:00,
2013-10-08 03:05:00,49.1,43.2,30.09,North,10,0.0,0.0,80,0.00,,---,0.00,VWS V14.01,2013-10-08 07:05:00,
2013-10-08 03:08:00,48.9,43.3,30.09,North,10,0.0,0.0,81,0.00,,---,0.00,VWS V14.01,2013-10-08 07:08:00,
2013-10-08 03:10:00,48.8,43.6,30.09,North,10,0.0,0.0,82,0.00,,---,0.00,VWS V14.01,2013-10-08 07:10:00,
2013-10-08 03:13:00,48.6,43.7,30.09,North,10,0.0,0.0,83,0.00,,---,0.00,VWS V14.01,2013-10-08 07:13:00,
2013-10-08 03:15:00,48.6,44.0,30.09,North,10,0.0,0.0,84,0.00,,---,0.00,VWS V14.01,2013-10-08 07:15:00,
2013-10-08 03:18:00,48.5,43.9,30.09,North,10,0.0,0.0,84,0.00,,---,0.00,VWS V14.01,2013-10-08 07:18:00,
2013-10-08 03:20:00,48.3,43.7,30.10,North,10,0.0,0.0,84,0.00,,---,0.00,VWS V14.01,2013-10-08 07:20:00,
2013-10-08 03:23:00,48.2,43.6,30.10,North,10,0.0,0.0,84,0.00,,---,0.00,VWS V14.01,2013-10-08 07:23:00,
2013-10-08 03:25:00,48.0,43.4,30.10,North,10,0.0,0.0,84,0.00,,---,0.00,VWS V14.01,2013-10-08 07:25:00,
2013-10-08 03:28:00,48.0,43.7,30.09,North,10,0.0,0.0,85,0.00,,---,0.00,VWS V14.01,2013-10-08 07:28:00,
2013-10-08 03:30:00,47.9,43.6,30.09,North,10,0.0,0.0,85,0.00,,---,0.00,VWS V14.01,2013-10-08 07:30:00,
2013-10-08 03:33:00,47.7,43.4,30.09,North,10,0.0,0.0,85,0.00,,---,0.00,VWS V14.01,2013-10-08 07:33:00,
2013-10-08 03:35:00,47.7,43.4,30.10,North,10,0.0,0.0,85,0.00,,---,0.00,VWS V14.01,2013-10-08 07:35:00,
2013-10-08 03:38:00,47.6,43.6,30.10,North,10,0.0,0.0,86,0.00,,---,0.00,VWS V14.01,2013-10-08 07:38:00,
2013-10-08 03:40:00,47.4,43.4,30.09,North,10,0.0,0.0,86,0.00,,---,0.00,VWS V14.01,2013-10-08 07:40:00,
2013-10-08 03:43:00,47.3,43.6,30.10,North,10,0.0,0.0,87,0.00,,---,0.00,VWS V14.01,2013-10-08 07:43:00,
2013-10-08 03:45:00,47.3,43.6,30.10,North,10,0.0,0.0,87,0.00,,---,0.00,VWS V14.01,2013-10-08 07:45:00,
2013-10-08 03:48:00,47.1,43.4,30.10,North,10,0.0,0.0,87,0.00,,---,0.00,VWS V14.01,2013-10-08 07:48:00,
2013-10-08 03:50:00,47.1,43.4,30.10,North,10,0.0,0.0,87,0.00,,---,0.00,VWS V14.01,2013-10-08 07:50:00,
2013-10-08 03:53:00,47.0,43.6,30.11,North,10,0.0,0.0,88,0.00,,---,0.00,VWS V14.01,2013-10-08 07:53:00,
2013-10-08 03:55:00,47.0,43.6,30.11,North,10,0.0,0.0,88,0.00,,---,0.00,VWS V14.01,2013-10-08 07:55:00,
2013-10-08 03:58:00,46.8,43.4,30.11,North,10,0.0,0.0,88,0.00,,---,0.00,VWS V14.01,2013-10-08 07:58:00,
2013-10-08 04:00:00,46.8,43.4,30.11,North,10,0.0,0.0,88,0.00,,---,0.00,VWS V14.01,2013-10-08 08:00:00,
2013-10-08 04:03:00,46.7,43.3,30.11,North,10,0.0,0.0,88,0.00,,---,0.00,VWS V14.01,2013-10-08 08:03:00,
2013-10-08 04:05:00,46.7,43.3,30.11,North,10,0.0,0.0,88,0.00,,---,0.00,VWS V14.01,2013-10-08 08:05:00,
2013-10-08 04:08:00,46.5,43.4,30.12,North,10,0.0,0.0,89,0.00,,---,0.00,VWS V14.01,2013-10-08 08:08:00,
2013-10-08 04:10:00,46.5,43.4,30.12,North,10,0.0,0.0,89,0.00,,---,0.00,VWS V14.01,2013-10-08 08:10:00,
2013-10-08 04:13:00,46.4,43.3,30.12,North,10,0.0,0.0,89,0.00,,---,0.00,VWS V14.01,2013-10-08 08:13:00,
2013-10-08 04:15:00,46.2,43.1,30.12,North,10,0.0,0.0,89,0.00,,---,0.00,VWS V14.01,2013-10-08 08:15:00,
2013-10-08 04:18:00,46.1,43.3,30.12,North,10,0.0,1.0,90,0.00,,---,0.00,VWS V14.01,2013-10-08 08:18:00,
2013-10-08 04:20:00,46.1,43.3,30.12,North,10,0.0,1.0,90,0.00,,---,0.00,VWS V14.01,2013-10-08 08:20:00,
2013-10-08 04:23:00,46.0,43.2,30.13,North,10,0.0,0.0,90,0.00,,---,0.00,VWS V14.01,2013-10-08 08:23:00,
2013-10-08 04:25:00,46.0,43.2,30.13,North,10,0.0,0.0,90,0.00,,---,0.00,VWS V14.01,2013-10-08 08:25:00,
2013-10-08 04:28:00,45.8,43.3,30.13,North,10,0.0,0.0,91,0.00,,---,0.00,VWS V14.01,2013-10-08 08:28:00,
2013-10-08 04:30:00,45.8,43.3,30.13,North,10,0.0,0.0,91,0.00,,---,0.00,VWS V14.01,2013-10-08 08:30:00,
2013-10-08 04:33:00,45.8,43.6,30.13,WNW,298,2.0,3.0,92,0.00,,---,0.00,VWS V14.01,2013-10-08 08:33:00,
2013-10-08 04:35:00,45.8,43.6,30.13,WNW,298,1.0,3.0,92,0.00,,---,0.00,VWS V14.01,2013-10-08 08:35:00,
2013-10-08 04:38:00,45.8,43.9,30.13,WNW,298,1.0,1.0,93,0.00,,---,0.00,VWS V14.01,2013-10-08 08:38:00,
2013-10-08 04:40:00,47.4,43.4,30.09,North,10,0.0,0.0,86,0.00,,---,0.00,VWS V14.01,2013-10-08 08:40:00,
2013-10-08 04:43:00,45.7,43.8,30.14,WNW,298,0.0,1.0,93,0.00,,---,0.00,VWS V14.01,2013-10-08 08:43:00,
2013-10-08 04:45:00,45.7,43.8,30.14,WNW,298,0.0,1.0,93,0.00,,---,0.00,VWS V14.01,2013-10-08 08:45:00,
2013-10-08 04:48:00,45.7,43.8,30.14,WNW,298,1.0,1.0,93,0.00,,---,0.00,VWS V14.01,2013-10-08 08:48:00,
2013-10-08 04:50:00,45.8,43.9,30.14,WNW,298,0.0,1.0,93,0.00,,---,0.00,VWS V14.01,2013-10-08 08:50:00,
2013-10-08 04:53:00,45.8,44.2,30.14,WNW,298,0.0,2.0,94,0.00,,---,0.00,VWS V14.01,2013-10-08 08:53:00,
2013-10-08 04:55:00,47.0,43.6,30.11,North,10,0.0,0.0,88,0.00,,---,0.00,VWS V14.01,2013-10-08 08:55:00,
2013-10-08 04:58:00,45.8,44.2,30.15,WNW,298,0.0,0.0,94,0.00,,---,0.00,VWS V14.01,2013-10-08 08:58:00,
2013-10-08 05:00:00,45.8,44.2,30.15,WNW,298,0.0,0.0,94,0.00,,---,0.00,VWS V14.01,2013-10-08 09:00:00,
2013-10-08 05:03:00,45.8,44.2,30.15,WNW,298,0.0,0.0,94,0.00,,---,0.00,VWS V14.01,2013-10-08 09:03:00,
2013-10-08 05:05:00,45.8,44.2,30.15,WNW,298,0.0,0.0,94,0.00,,---,0.00,VWS V14.01,2013-10-08 09:05:00,
2013-10-08 05:08:00,45.8,44.2,30.16,WNW,298,0.0,1.0,94,0.00,,---,0.00,VWS V14.01,2013-10-08 09:08:00,
2013-10-08 05:10:00,45.8,44.2,30.16,WNW,298,0.0,1.0,94,0.00,,---,0.00,VWS V14.01,2013-10-08 09:10:00,
2013-10-08 05:13:00,45.8,44.2,30.15,WNW,298,0.0,1.0,94,0.00,,---,0.00,VWS V14.01,2013-10-08 09:13:00,
2013-10-08 05:15:00,45.8,44.2,30.15,WNW,298,0.0,1.0,94,0.00,,---,0.00,VWS V14.01,2013-10-08 09:15:00,
2013-10-08 05:18:00,45.8,44.2,30.16,WNW,298,0.0,0.0,94,0.00,,---,0.00,VWS V14.01,2013-10-08 09:18:00,
2013-10-08 05:20:00,45.8,44.2,30.16,WNW,298,0.0,0.0,94,0.00,,---,0.00,VWS V14.01,2013-10-08 09:20:00,
2013-10-08 05:23:00,45.7,44.1,30.16,WNW,298,0.0,0.0,94,0.00,,---,0.00,VWS V14.01,2013-10-08 09:23:00,
2013-10-08 05:25:00,45.7,44.1,30.16,WNW,298,0.0,0.0,94,0.00,,---,0.00,VWS V14.01,2013-10-08 09:25:00,
2013-10-08 05:28:00,45.7,44.1,30.16,WNW,298,0.0,0.0,94,0.00,,---,0.00,VWS V14.01,2013-10-08 09:28:00,
2013-10-08 05:30:00,45.7,44.1,30.16,WNW,298,0.0,0.0,94,0.00,,---,0.00,VWS V14.01,2013-10-08 09:30:00,
2013-10-08 05:33:00,45.7,44.1,30.17,WNW,298,0.0,0.0,94,0.00,,---,0.00,VWS V14.01,2013-10-08 09:33:00,
2013-10-08 05:35:00,45.5,43.9,30.17,WNW,298,0.0,0.0,94,0.00,,---,0.00,VWS V14.01,2013-10-08 09:35:00,
2013-10-08 05:38:00,45.5,43.9,30.16,WNW,298,0.0,0.0,94,0.00,,---,0.00,VWS V14.01,2013-10-08 09:38:00,
2013-10-08 05:40:00,45.5,43.9,30.16,WNW,298,0.0,0.0,94,0.00,,---,0.00,VWS V14.01,2013-10-08 09:40:00,
2013-10-08 05:43:00,45.4,43.8,30.17,WNW,298,0.0,0.0,94,0.00,,---,0.00,VWS V14.01,2013-10-08 09:43:00,
2013-10-08 05:45:00,45.4,43.8,30.17,WNW,298,0.0,0.0,94,0.00,,---,0.00,VWS V14.01,2013-10-08 09:45:00,
2013-10-08 05:48:00,45.4,43.8,30.17,WNW,298,0.0,0.0,94,0.00,,---,0.00,VWS V14.01,2013-10-08 09:48:00,
2013-10-08 05:50:00,45.4,43.8,30.17,WNW,298,0.0,1.0,94,0.00,,---,0.00,VWS V14.01,2013-10-08 09:50:00,
2013-10-08 05:53:00,45.2,43.9,30.17,WNW,298,0.0,1.0,95,0.00,,---,0.00,VWS V14.01,2013-10-08 09:53:00,
2013-10-08 05:55:00,45.2,43.9,30.16,WNW,298,0.0,1.0,95,0.00,,---,0.00,VWS V14.01,2013-10-08 09:55:00,
2013-10-08 05:59:00,45.2,43.9,30.17,WNW,298,0.0,0.0,95,0.00,,---,0.00,VWS V14.01,2013-10-08 09:59:00,
2013-10-08 06:00:00,45.2,43.9,30.17,WNW,298,0.0,0.0,95,0.00,,---,0.00,VWS V14.01,2013-10-08 10:00:00,
2013-10-08 06:04:00,45.2,43.9,30.17,WNW,298,0.0,0.0,95,0.00,,---,0.00,VWS V14.01,2013-10-08 10:04:00,
2013-10-08 06:05:00,45.2,43.9,30.17,WNW,298,0.0,0.0,95,0.00,,---,0.00,VWS V14.01,2013-10-08 10:05:00,
2013-10-08 06:09:00,45.2,44.1,30.18,WSW,242,0.0,2.0,96,0.00,,---,0.00,VWS V14.01,2013-10-08 10:09:00,
2013-10-08 06:10:00,45.2,44.1,30.18,WSW,242,0.0,2.0,96,0.00,,---,0.00,VWS V14.01,2013-10-08 10:10:00,
2013-10-08 06:14:00,45.4,44.3,30.18,WSW,242,0.0,1.0,96,0.00,,---,0.00,VWS V14.01,2013-10-08 10:14:00,
2013-10-08 06:15:00,45.4,44.3,30.18,WSW,242,0.0,1.0,96,0.00,,---,0.00,VWS V14.01,2013-10-08 10:15:00,
2013-10-08 06:19:00,45.4,44.3,30.18,WSW,244,0.0,2.0,96,0.00,,---,0.00,VWS V14.01,2013-10-08 10:19:00,
2013-10-08 06:20:00,45.4,44.3,30.18,WSW,244,0.0,2.0,96,0.00,,---,0.00,VWS V14.01,2013-10-08 10:20:00,
2013-10-08 06:24:00,45.5,44.4,30.18,WSW,244,0.0,1.0,96,0.00,,---,0.00,VWS V14.01,2013-10-08 10:24:00,
2013-10-08 06:25:00,45.5,44.4,30.18,WSW,244,0.0,1.0,96,0.00,,---,0.00,VWS V14.01,2013-10-08 10:25:00,
2013-10-08 06:29:00,45.5,44.4,30.19,SW,225,1.0,2.0,96,0.00,,---,0.00,VWS V14.01,2013-10-08 10:29:00,
2013-10-08 06:30:00,45.5,44.4,30.19,SW,225,0.0,2.0,96,0.00,,---,0.00,VWS V14.01,2013-10-08 10:30:00,
2013-10-08 06:34:00,45.7,44.6,30.19,SW,225,1.0,1.0,96,0.00,,---,0.00,VWS V14.01,2013-10-08 10:34:00,
2013-10-08 06:35:00,45.7,44.6,30.19,SW,225,0.0,1.0,96,0.00,,---,0.00,VWS V14.01,2013-10-08 10:35:00,
2013-10-08 06:39:00,45.7,44.6,30.20,SW,225,0.0,1.0,96,0.00,,---,0.00,VWS V14.01,2013-10-08 10:39:00,
2013-10-08 06:40:00,45.7,44.6,30.20,SW,225,0.0,1.0,96,0.00,,---,0.00,VWS V14.01,2013-10-08 10:40:00,
2013-10-08 06:44:00,45.7,44.6,30.20,SW,225,0.0,0.0,96,0.00,,---,0.00,VWS V14.01,2013-10-08 10:44:00,
2013-10-08 06:45:00,45.7,44.6,30.20,SW,225,0.0,0.0,96,0.00,,---,0.00,VWS V14.01,2013-10-08 10:45:00,
2013-10-08 06:49:00,45.8,44.7,30.20,SW,225,0.0,0.0,96,0.00,,---,0.00,VWS V14.01,2013-10-08 10:49:00,
2013-10-08 06:50:00,45.8,44.7,30.20,SW,225,0.0,0.0,96,0.00,,---,0.00,VWS V14.01,2013-10-08 10:50:00,
2013-10-08 06:54:00,45.8,44.7,30.20,WSW,250,0.0,3.0,96,0.00,,---,0.00,VWS V14.01,2013-10-08 10:54:00,
2013-10-08 06:55:00,45.8,44.7,30.20,WSW,250,0.0,3.0,96,0.00,,---,0.00,VWS V14.01,2013-10-08 10:55:00,
2013-10-08 06:59:00,45.8,44.7,30.20,WSW,250,0.0,1.0,96,0.00,,---,0.00,VWS V14.01,2013-10-08 10:59:00,
2013-10-08 07:00:00,45.8,44.7,30.20,WSW,250,0.0,1.0,96,0.00,,---,0.00,VWS V14.01,2013-10-08 11:00:00,
2013-10-08 07:04:00,45.8,44.5,30.21,WSW,250,0.0,1.0,95,0.00,,---,0.00,VWS V14.01,2013-10-08 11:04:00,
2013-10-08 07:05:00,45.8,44.5,30.21,WSW,250,0.0,1.0,95,0.00,,---,0.00,VWS V14.01,2013-10-08 11:05:00,
2013-10-08 07:09:00,45.8,44.5,30.21,SSW,200,1.0,2.0,95,0.00,,---,0.00,VWS V14.01,2013-10-08 11:09:00,
2013-10-08 07:10:00,45.7,44.3,30.21,WSW,250,2.0,2.0,95,0.00,,---,0.00,VWS V14.01,2013-10-08 11:10:00,
2013-10-08 07:14:00,45.7,44.3,30.21,WSW,250,0.0,3.0,95,0.00,,---,0.00,VWS V14.01,2013-10-08 11:14:00,
2013-10-08 07:15:00,45.7,44.3,30.21,WSW,250,0.0,3.0,95,0.00,,---,0.00,VWS V14.01,2013-10-08 11:15:00,
2013-10-08 07:19:00,45.5,44.2,30.22,SSW,198,0.0,2.0,95,0.00,,---,0.00,VWS V14.01,2013-10-08 11:19:00,
2013-10-08 07:20:00,45.5,44.2,30.22,SSW,198,0.0,2.0,95,0.00,,---,0.00,VWS V14.01,2013-10-08 11:20:00,
2013-10-08 07:24:00,45.4,44.0,30.22,SSW,198,0.0,0.0,95,0.00,,---,0.00,VWS V14.01,2013-10-08 11:24:00,
2013-10-08 07:25:00,45.4,43.8,30.22,SSW,198,0.0,0.0,94,0.00,,---,0.00,VWS V14.01,2013-10-08 11:25:00,
2013-10-08 07:29:00,45.4,43.8,30.22,SSW,198,0.0,1.0,94,0.00,,---,0.00,VWS V14.01,2013-10-08 11:29:00,
2013-10-08 07:30:00,45.4,43.8,30.22,SSW,198,0.0,1.0,94,0.00,,---,0.00,VWS V14.01,2013-10-08 11:30:00,
2013-10-08 07:34:00,45.2,43.6,30.23,SSW,198,0.0,1.0,94,0.00,,---,0.00,VWS V14.01,2013-10-08 11:34:00,
2013-10-08 07:35:00,45.2,43.6,30.23,SSW,198,0.0,1.0,94,0.00,,---,0.00,VWS V14.01,2013-10-08 11:35:00,
2013-10-08 07:39:00,45.2,43.9,30.23,South,174,0.0,2.0,95,0.00,,---,0.00,VWS V14.01,2013-10-08 11:39:00,
2013-10-08 07:40:00,45.1,43.8,30.23,South,174,0.0,2.0,95,0.00,,---,0.00,VWS V14.01,2013-10-08 11:40:00,
2013-10-08 07:44:00,45.1,43.8,30.23,South,174,0.0,0.0,95,0.00,,---,0.00,VWS V14.01,2013-10-08 11:44:00,
2013-10-08 07:45:00,45.1,43.8,30.23,South,174,0.0,0.0,95,0.00,,---,0.00,VWS V14.01,2013-10-08 11:45:00,
2013-10-08 07:49:00,45.1,43.8,30.23,South,174,0.0,0.0,95,0.00,,---,0.00,VWS V14.01,2013-10-08 11:49:00,
2013-10-08 07:50:00,45.1,43.8,30.23,South,174,0.0,0.0,95,0.00,,---,0.00,VWS V14.01,2013-10-08 11:50:00,
2013-10-08 07:54:00,44.9,43.6,30.24,South,174,0.0,0.0,95,0.00,,---,0.00,VWS V14.01,2013-10-08 11:54:00,
2013-10-08 07:55:00,44.9,43.6,30.24,South,174,0.0,0.0,95,0.00,,---,0.00,VWS V14.01,2013-10-08 11:55:00,
2013-10-08 07:59:00,45.1,44.0,30.24,South,174,0.0,0.0,96,0.00,,---,0.00,VWS V14.01,2013-10-08 11:59:00,
2013-10-08 08:00:00,45.1,44.0,30.24,South,174,0.0,0.0,96,0.00,,---,0.00,VWS V14.01,2013-10-08 12:00:00,
2013-10-08 08:04:00,45.1,44.3,30.24,South,174,0.0,1.0,97,0.00,,---,0.00,VWS V14.01,2013-10-08 12:04:00,
2013-10-08 08:05:00,45.1,44.3,30.24,South,174,0.0,1.0,97,0.00,,---,0.00,VWS V14.01,2013-10-08 12:05:00,
2013-10-08 08:09:00,45.1,44.3,30.25,South,174,0.0,0.0,97,0.00,,---,0.00,VWS V14.01,2013-10-08 12:09:00,
2013-10-08 08:10:00,45.2,44.4,30.25,South,174,0.0,0.0,97,0.00,,---,0.00,VWS V14.01,2013-10-08 12:10:00,
2013-10-08 08:14:00,45.2,44.4,30.24,South,174,0.0,0.0,97,0.00,,---,0.00,VWS V14.01,2013-10-08 12:14:00,
2013-10-08 08:15:00,45.2,44.4,30.24,South,174,0.0,0.0,97,0.00,,---,0.00,VWS V14.01,2013-10-08 12:15:00,
2013-10-08 08:19:00,45.5,44.7,30.25,South,174,0.0,0.0,97,0.00,,---,0.00,VWS V14.01,2013-10-08 12:19:00,
2013-10-08 08:20:00,45.5,44.7,30.25,South,174,0.0,0.0,97,0.00,,---,0.00,VWS V14.01,2013-10-08 12:20:00,
2013-10-08 08:24:00,46.0,45.5,30.25,South,173,0.0,1.0,98,0.00,,---,0.00,VWS V14.01,2013-10-08 12:24:00,
2013-10-08 08:25:00,46.0,45.5,30.25,South,173,0.0,1.0,98,0.00,,---,0.00,VWS V14.01,2013-10-08 12:25:00,
2013-10-08 08:29:00,46.2,45.7,30.25,South,173,0.0,2.0,98,0.00,,---,0.00,VWS V14.01,2013-10-08 12:29:00,
2013-10-08 08:30:00,46.4,45.9,30.25,South,173,0.0,2.0,98,0.00,,---,0.00,VWS V14.01,2013-10-08 12:30:00,
2013-10-08 08:34:00,47.0,46.5,30.25,South,173,0.0,1.0,98,0.00,,---,0.00,VWS V14.01,2013-10-08 12:34:00,
2013-10-08 08:35:00,47.0,46.5,30.25,South,173,0.0,1.0,98,0.00,,---,0.00,VWS V14.01,2013-10-08 12:35:00,
2013-10-08 08:39:00,47.4,46.9,30.25,South,173,0.0,1.0,98,0.00,,---,0.00,VWS V14.01,2013-10-08 12:39:00,
2013-10-08 08:40:00,47.6,47.1,30.25,South,173,0.0,1.0,98,0.00,,---,0.00,VWS V14.01,2013-10-08 12:40:00,
2013-10-08 08:44:00,48.0,47.7,30.25,South,173,0.0,0.0,99,0.00,,---,0.00,VWS V14.01,2013-10-08 12:44:00,
2013-10-08 08:45:00,48.0,47.7,30.25,South,173,0.0,0.0,99,0.00,,---,0.00,VWS V14.01,2013-10-08 12:45:00,
2013-10-08 08:49:00,48.5,48.0,30.25,South,173,0.0,0.0,98,0.00,,---,0.00,VWS V14.01,2013-10-08 12:49:00,
2013-10-08 08:50:00,48.5,48.0,30.25,South,173,0.0,0.0,98,0.00,,---,0.00,VWS V14.01,2013-10-08 12:50:00,
2013-10-08 08:54:00,48.9,48.4,30.25,South,174,0.0,1.0,98,0.00,,---,0.00,VWS V14.01,2013-10-08 12:54:00,
2013-10-08 08:55:00,48.9,48.4,30.25,South,173,0.0,1.0,98,0.00,,---,0.00,VWS V14.01,2013-10-08 12:55:00,
2013-10-08 08:59:00,49.5,49.0,30.25,South,174,0.0,1.0,98,0.00,,---,0.00,VWS V14.01,2013-10-08 12:59:00,
2013-10-08 09:00:00,49.5,49.0,30.25,South,173,0.0,1.0,98,0.00,,---,0.00,VWS V14.01,2013-10-08 13:00:00,
2013-10-08 09:04:00,49.9,49.1,30.26,South,173,0.0,1.0,97,0.00,,---,0.00,VWS V14.01,2013-10-08 13:04:00,
2013-10-08 09:05:00,49.9,48.8,30.26,South,173,0.0,1.0,96,0.00,,---,0.00,VWS V14.01,2013-10-08 13:05:00,
2013-10-08 09:09:00,50.5,49.1,30.26,East,81,3.0,3.0,95,0.00,,---,0.00,VWS V14.01,2013-10-08 13:09:00,
2013-10-08 09:10:00,50.7,49.3,30.26,ENE,63,2.0,3.0,95,0.00,,---,0.00,VWS V14.01,2013-10-08 13:10:00,
2013-10-08 09:14:00,51.4,48.3,30.26,ENE,62,0.0,2.0,89,0.00,,---,0.00,VWS V14.01,2013-10-08 13:14:00,
2013-10-08 09:15:00,51.4,48.3,30.26,ENE,62,0.0,2.0,89,0.00,,---,0.00,VWS V14.01,2013-10-08 13:15:00,
2013-10-08 09:19:00,52.2,48.2,30.26,NE,53,2.0,3.0,86,0.00,,---,0.00,VWS V14.01,2013-10-08 13:19:00,
2013-10-08 09:20:00,52.2,48.2,30.26,NE,53,0.0,3.0,86,0.00,,---,0.00,VWS V14.01,2013-10-08 13:20:00,
2013-10-08 09:24:00,52.9,48.2,30.26,NNE,28,0.0,3.0,84,0.00,,---,0.00,VWS V14.01,2013-10-08 13:24:00,
2013-10-08 09:25:00,52.9,48.2,30.26,NNE,28,1.0,3.0,84,0.00,,---,0.00,VWS V14.01,2013-10-08 13:25:00,
2013-10-08 09:29:00,53.5,47.2,30.26,NE,34,0.0,4.0,79,0.00,,---,0.00,VWS V14.01,2013-10-08 13:29:00,
2013-10-08 09:30:00,53.5,46.8,30.26,NE,34,2.0,4.0,78,0.00,,---,0.00,VWS V14.01,2013-10-08 13:30:00,
2013-10-08 09:34:00,54.2,47.5,30.26,North,355,1.0,3.0,78,0.00,,---,0.00,VWS V14.01,2013-10-08 13:34:00,
2013-10-08 09:35:00,54.2,47.8,30.26,North,355,0.0,3.0,79,0.00,,---,0.00,VWS V14.01,2013-10-08 13:35:00,
2013-10-08 09:39:00,54.8,47.0,30.27,NE,42,1.0,4.0,75,0.00,,---,0.00,VWS V14.01,2013-10-08 13:39:00,
2013-10-08 09:40:00,54.8,47.0,30.27,NE,53,1.0,4.0,75,0.00,,---,0.00,VWS V14.01,2013-10-08 13:40:00,
2013-10-08 09:44:00,55.4,47.3,30.27,NE,53,2.0,3.0,74,0.00,,---,0.00,VWS V14.01,2013-10-08 13:44:00,
2013-10-08 09:45:00,55.4,47.3,30.27,NE,53,1.0,3.0,74,0.00,,---,0.00,VWS V14.01,2013-10-08 13:45:00,
2013-10-08 09:49:00,56.0,48.2,30.26,North,5,3.0,3.0,75,0.00,,---,0.00,VWS V14.01,2013-10-08 13:49:00,
2013-10-08 09:50:00,56.0,48.2,30.26,North,5,1.0,3.0,75,0.00,,---,0.00,VWS V14.01,2013-10-08 13:50:00,
2013-10-08 09:54:00,56.3,47.8,30.26,North,11,2.0,4.0,73,0.00,,---,0.00,VWS V14.01,2013-10-08 13:54:00,
2013-10-08 09:55:00,56.5,48.0,30.26,North,11,2.0,4.0,73,0.00,,---,0.00,VWS V14.01,2013-10-08 13:55:00,
2013-10-08 09:59:00,56.7,46.3,30.26,ENE,73,5.0,6.0,68,0.00,,---,0.00,VWS V14.01,2013-10-08 13:59:00,
2013-10-08 10:00:00,56.7,46.3,30.26,ENE,76,6.0,7.0,68,0.00,,---,0.00,VWS V14.01,2013-10-08 14:00:00,
2013-10-08 10:04:00,57.0,46.9,30.26,NNE,26,3.0,7.0,69,0.00,,---,0.00,VWS V14.01,2013-10-08 14:04:00,
2013-10-08 10:05:00,57.0,46.9,30.26,NNE,26,2.0,7.0,69,0.00,,---,0.00,VWS V14.01,2013-10-08 14:05:00,
2013-10-08 10:09:00,57.2,47.1,30.26,NE,40,0.0,3.0,69,0.00,,---,0.00,VWS V14.01,2013-10-08 14:09:00,
2013-10-08 10:10:00,57.2,47.5,30.26,NE,40,1.0,3.0,70,0.00,,---,0.00,VWS V14.01,2013-10-08 14:10:00,
2013-10-08 10:14:00,57.5,47.0,30.26,NNE,13,0.0,6.0,68,0.00,,---,0.00,VWS V14.01,2013-10-08 14:14:00,
2013-10-08 10:15:00,57.6,47.1,30.26,NNW,346,3.0,6.0,68,0.00,,---,0.00,VWS V14.01,2013-10-08 14:15:00,
2013-10-08 10:19:00,58.0,46.7,30.27,NNW,339,1.0,6.0,66,0.00,,---,0.00,VWS V14.01,2013-10-08 14:19:00,
2013-10-08 10:20:00,58.0,46.7,30.27,NNW,340,3.0,6.0,66,0.00,,---,0.00,VWS V14.01,2013-10-08 14:20:00,
2013-10-08 10:24:00,58.3,47.8,30.27,NNE,32,1.0,5.0,68,0.00,,---,0.00,VWS V14.01,2013-10-08 14:24:00,
2013-10-08 10:25:00,58.3,47.8,30.27,NE,51,2.0,5.0,68,0.00,,---,0.00,VWS V14.01,2013-10-08 14:25:00,
2013-10-08 10:29:00,58.4,46.7,30.27,ENE,58,0.0,5.0,65,0.00,,---,0.00,VWS V14.01,2013-10-08 14:29:00,
2013-10-08 10:30:00,58.4,46.7,30.27,ESE,112,2.0,5.0,65,0.00,,---,0.00,VWS V14.01,2013-10-08 14:30:00,
2013-10-08 10:34:00,58.7,47.0,30.27,NNE,15,1.0,5.0,65,0.00,,---,0.00,VWS V14.01,2013-10-08 14:34:00,
2013-10-08 10:35:00,58.9,47.2,30.27,North,5,5.0,5.0,65,0.00,,---,0.00,VWS V14.01,2013-10-08 14:35:00,
2013-10-08 10:39:00,59.0,46.0,30.27,ENE,61,2.0,6.0,62,0.00,,---,0.00,VWS V14.01,2013-10-08 14:39:00,
2013-10-08 10:40:00,59.0,46.0,30.27,NE,55,3.0,6.0,62,0.00,,---,0.00,VWS V14.01,2013-10-08 14:40:00,
2013-10-08 10:44:00,59.2,46.6,30.27,NNW,337,2.0,6.0,63,0.00,,---,0.00,VWS V14.01,2013-10-08 14:44:00,
2013-10-08 10:45:00,59.2,46.2,30.27,NNE,30,3.0,6.0,62,0.00,,---,0.00,VWS V14.01,2013-10-08 14:45:00,
2013-10-08 10:49:00,59.3,45.0,30.27,ENE,69,5.0,8.0,59,0.00,,---,0.00,VWS V14.01,2013-10-08 14:49:00,
2013-10-08 10:50:00,59.3,45.4,30.27,East,82,5.0,8.0,60,0.00,,---,0.00,VWS V14.01,2013-10-08 14:50:00,
2013-10-08 10:54:00,59.3,46.3,30.27,NE,37,1.0,5.0,62,0.00,,---,0.00,VWS V14.01,2013-10-08 14:54:00,
2013-10-08 10:55:00,59.3,46.3,30.27,NE,37,0.0,5.0,62,0.00,,---,0.00,VWS V14.01,2013-10-08 14:55:00,
2013-10-08 10:59:00,59.5,46.9,30.27,NE,45,2.0,5.0,63,0.00,,---,0.00,VWS V14.01,2013-10-08 14:59:00,
2013-10-08 11:00:00,59.5,46.9,30.27,NNE,28,1.0,5.0,63,0.00,,---,0.00,VWS V14.01,2013-10-08 15:00:00,
2013-10-08 11:04:00,59.8,45.9,30.27,NNW,336,3.0,6.0,60,0.00,,---,0.00,VWS V14.01,2013-10-08 15:04:00,
2013-10-08 11:05:00,59.8,45.9,30.27,NNE,30,1.0,6.0,60,0.00,,---,0.00,VWS V14.01,2013-10-08 15:05:00,
2013-10-08 11:09:00,60.1,45.3,30.26,East,88,0.0,4.0,58,0.00,,---,0.00,VWS V14.01,2013-10-08 15:09:00,
2013-10-08 11:10:00,60.1,45.3,30.26,East,88,2.0,4.0,58,0.00,,---,0.00,VWS V14.01,2013-10-08 15:10:00,
2013-10-08 11:14:00,60.4,46.0,30.26,NE,49,4.0,6.0,59,0.00,,---,0.00,VWS V14.01,2013-10-08 15:14:00,
2013-10-08 11:15:00,60.4,46.0,30.26,ENE,66,4.0,6.0,59,0.00,,---,0.00,VWS V14.01,2013-10-08 15:15:00,
2013-10-08 11:19:00,60.4,46.5,30.26,ENE,57,5.0,5.0,60,0.00,,---,0.00,VWS V14.01,2013-10-08 15:19:00,
2013-10-08 11:20:00,60.5,45.7,30.26,ENE,57,4.0,5.0,58,0.00,,---,0.00,VWS V14.01,2013-10-08 15:20:00,
2013-10-08 11:24:00,60.7,45.4,30.25,ENE,65,1.0,7.0,57,0.00,,---,0.00,VWS V14.01,2013-10-08 15:24:00,
2013-10-08 11:25:00,60.7,46.3,30.25,NNE,26,1.0,7.0,59,0.00,,---,0.00,VWS V14.01,2013-10-08 15:25:00,
2013-10-08 11:29:00,60.7,46.3,30.26,NE,44,2.0,7.0,59,0.00,,---,0.00,VWS V14.01,2013-10-08 15:29:00,
2013-10-08 11:30:00,60.7,46.3,30.26,NE,44,2.0,7.0,59,0.00,,---,0.00,VWS V14.01,2013-10-08 15:30:00,
2013-10-08 11:34:00,61.0,47.5,30.26,East,88,0.0,5.0,61,0.00,,---,0.00,VWS V14.01,2013-10-08 15:34:00,
2013-10-08 11:35:00,61.0,47.5,30.26,East,88,1.0,5.0,61,0.00,,---,0.00,VWS V14.01,2013-10-08 15:35:00,
2013-10-08 11:39:00,61.3,46.9,30.26,ENE,62,0.0,6.0,59,0.00,,---,0.00,VWS V14.01,2013-10-08 15:39:00,
2013-10-08 11:40:00,61.5,47.1,30.26,ENE,62,2.0,6.0,59,0.00,,---,0.00,VWS V14.01,2013-10-08 15:40:00,
2013-10-08 11:44:00,61.8,45.5,30.26,NE,49,4.0,7.0,55,0.00,,---,0.00,VWS V14.01,2013-10-08 15:44:00,
2013-10-08 11:45:00,61.8,45.5,30.26,ENE,59,7.0,7.0,55,0.00,,---,0.00,VWS V14.01,2013-10-08 15:45:00,
2013-10-08 11:49:00,61.8,45.5,30.25,NNE,29,1.0,9.0,55,0.00,,---,0.00,VWS V14.01,2013-10-08 15:49:00,
2013-10-08 11:50:00,61.8,45.5,30.25,NNE,29,1.0,9.0,55,0.00,,---,0.00,VWS V14.01,2013-10-08 15:50:00,
2013-10-08 11:54:00,61.6,44.8,30.25,ENE,77,4.0,5.0,54,0.00,,---,0.00,VWS V14.01,2013-10-08 15:54:00,
2013-10-08 11:55:00,61.6,44.8,30.25,East,101,5.0,5.0,54,0.00,,---,0.00,VWS V14.01,2013-10-08 15:55:00,
2013-10-08 11:59:00,61.8,45.5,30.25,NE,52,2.0,10.0,55,0.00,,---,0.00,VWS V14.01,2013-10-08 15:59:00,
2013-10-08 12:00:00,61.8,44.5,30.25,NE,49,2.0,10.0,53,0.00,,---,0.00,VWS V14.01,2013-10-08 16:00:00,
2013-10-08 12:04:00,61.8,45.5,30.25,NE,34,4.0,10.0,55,0.00,,---,0.00,VWS V14.01,2013-10-08 16:04:00,
2013-10-08 12:05:00,61.8,45.5,30.25,NE,34,3.0,10.0,55,0.00,,---,0.00,VWS V14.01,2013-10-08 16:05:00,
2013-10-08 12:09:00,62.0,45.2,30.25,North,10,4.0,6.0,54,0.00,,---,0.00,VWS V14.01,2013-10-08 16:09:00,
2013-10-08 12:10:00,62.0,45.2,30.25,NNE,25,3.0,6.0,54,0.00,,---,0.00,VWS V14.01,2013-10-08 16:10:00,
2013-10-08 12:14:00,62.0,44.2,30.25,SE,143,2.0,7.0,52,0.00,,---,0.00,VWS V14.01,2013-10-08 16:14:00,
2013-10-08 12:15:00,62.0,44.2,30.25,SE,143,1.0,7.0,52,0.00,,---,0.00,VWS V14.01,2013-10-08 16:15:00,
2013-10-08 12:19:00,62.3,46.4,30.25,SSE,156,0.0,5.0,56,0.00,,---,0.00,VWS V14.01,2013-10-08 16:19:00,
2013-10-08 12:20:00,62.3,46.4,30.25,SSE,156,0.0,5.0,56,0.00,,---,0.00,VWS V14.01,2013-10-08 16:20:00,
2013-10-08 12:24:00,62.3,46.4,30.25,NNE,17,2.0,5.0,56,0.00,,---,0.00,VWS V14.01,2013-10-08 16:24:00,
2013-10-08 12:25:00,62.3,46.4,30.25,NNE,17,2.0,5.0,56,0.00,,---,0.00,VWS V14.01,2013-10-08 16:25:00,
2013-10-08 12:29:00,62.4,44.6,30.25,ENE,59,2.0,7.0,52,0.00,,---,0.00,VWS V14.01,2013-10-08 16:29:00,
2013-10-08 12:30:00,62.4,44.6,30.25,ENE,59,2.0,7.0,52,0.00,,---,0.00,VWS V14.01,2013-10-08 16:30:00,
2013-10-08 12:34:00,62.6,45.7,30.25,NE,55,4.0,6.0,54,0.00,,---,0.00,VWS V14.01,2013-10-08 16:34:00,
2013-10-08 12:35:00,62.6,45.7,30.25,NE,53,4.0,6.0,54,0.00,,---,0.00,VWS V14.01,2013-10-08 16:35:00,
2013-10-08 12:39:00,62.6,46.2,30.25,NE,55,3.0,6.0,55,0.00,,---,0.00,VWS V14.01,2013-10-08 16:39:00,
2013-10-08 12:40:00,62.6,46.2,30.25,North,11,5.0,6.0,55,0.00,,---,0.00,VWS V14.01,2013-10-08 16:40:00,
2013-10-08 12:44:00,62.9,45.5,30.25,NNE,24,1.0,8.0,53,0.00,,---,0.00,VWS V14.01,2013-10-08 16:44:00,
2013-10-08 12:45:00,62.9,45.5,30.25,NNE,24,1.0,8.0,53,0.00,,---,0.00,VWS V14.01,2013-10-08 16:45:00,
2013-10-08 12:49:00,62.7,45.3,30.25,NNE,22,0.0,9.0,53,0.00,,---,0.00,VWS V14.01,2013-10-08 16:49:00,
2013-10-08 12:50:00,62.7,45.3,30.25,NNE,22,0.0,9.0,53,0.00,,---,0.00,VWS V14.01,2013-10-08 16:50:00,
2013-10-08 12:54:00,62.7,45.3,30.25,ENE,62,1.0,6.0,53,0.00,,---,0.00,VWS V14.01,2013-10-08 16:54:00,
2013-10-08 12:55:00,62.7,45.3,30.25,ENE,62,1.0,6.0,53,0.00,,---,0.00,VWS V14.01,2013-10-08 16:55:00,
2013-10-08 12:59:00,63.1,46.7,30.24,NE,53,4.0,6.0,55,0.00,,---,0.00,VWS V14.01,2013-10-08 16:59:00,
2013-10-08 13:00:00,63.1,46.7,30.24,NE,55,4.0,6.0,55,0.00,,---,0.00,VWS V14.01,2013-10-08 17:00:00,
2013-10-08 13:04:00,63.4,45.5,30.25,North,5,4.0,7.0,52,0.00,,---,0.00,VWS V14.01,2013-10-08 17:04:00,
2013-10-08 13:05:00,63.4,45.5,30.25,NNE,17,6.0,7.0,52,0.00,,---,0.00,VWS V14.01,2013-10-08 17:05:00,
2013-10-08 13:09:00,63.5,44.5,30.24,NW,306,3.0,7.0,50,0.00,,---,0.00,VWS V14.01,2013-10-08 17:09:00,
2013-10-08 13:10:00,63.5,44.5,30.24,NW,306,1.0,7.0,50,0.00,,---,0.00,VWS V14.01,2013-10-08 17:10:00,
2013-10-08 13:14:00,63.7,44.7,30.24,NE,49,0.0,9.0,50,0.00,,---,0.00,VWS V14.01,2013-10-08 17:14:00,
2013-10-08 13:15:00,63.7,44.7,30.24,NE,49,1.0,9.0,50,0.00,,---,0.00,VWS V14.01,2013-10-08 17:15:00,
2013-10-08 13:19:00,63.9,46.0,30.23,NNE,15,2.0,5.0,52,0.00,,---,0.00,VWS V14.01,2013-10-08 17:19:00,
2013-10-08 13:20:00,63.9,46.0,30.23,NNE,15,2.0,5.0,52,0.00,,---,0.00,VWS V14.01,2013-10-08 17:20:00,
2013-10-08 13:24:00,63.7,44.2,30.23,NE,45,3.0,5.0,49,0.00,,---,0.00,VWS V14.01,2013-10-08 17:24:00,
2013-10-08 13:25:00,63.7,44.2,30.23,NE,45,3.0,5.0,49,0.00,,---,0.00,VWS V14.01,2013-10-08 17:25:00,
2013-10-08 13:29:00,63.7,46.8,30.23,NNW,332,0.0,4.0,54,0.00,,---,0.00,VWS V14.01,2013-10-08 17:29:00,
2013-10-08 13:30:00,63.7,46.8,30.23,NNW,332,0.0,4.0,54,0.00,,---,0.00,VWS V14.01,2013-10-08 17:30:00,
2013-10-08 13:34:00,63.7,44.7,30.23,ENE,59,3.0,6.0,50,0.00,,---,0.00,VWS V14.01,2013-10-08 17:34:00,
2013-10-08 13:35:00,63.7,44.7,30.23,ENE,59,3.0,6.0,50,0.00,,---,0.00,VWS V14.01,2013-10-08 17:35:00,
2013-10-08 13:39:00,63.7,44.7,30.23,ENE,61,2.0,9.0,50,0.00,,---,0.00,VWS V14.01,2013-10-08 17:39:00,
2013-10-08 13:40:00,63.7,44.7,30.23,ENE,61,2.0,9.0,50,0.00,,---,0.00,VWS V14.01,2013-10-08 17:40:00,
2013-10-08 13:44:00,63.7,46.3,30.22,ENE,59,3.0,5.0,53,0.00,,---,0.00,VWS V14.01,2013-10-08 17:44:00,
2013-10-08 13:45:00,63.7,46.3,30.22,ENE,59,3.0,5.0,53,0.00,,---,0.00,VWS V14.01,2013-10-08 17:45:00,
2013-10-08 13:49:00,63.9,44.4,30.22,North,11,5.0,6.0,49,0.00,,---,0.00,VWS V14.01,2013-10-08 17:49:00,
2013-10-08 13:50:00,63.9,44.4,30.22,North,11,5.0,6.0,49,0.00,,---,0.00,VWS V14.01,2013-10-08 17:50:00,
2013-10-08 13:55:00,64.2,45.2,30.22,NNE,17,7.0,7.0,50,0.00,,---,0.00,VWS V14.01,2013-10-08 17:55:00,
2013-10-08 14:00:00,64.3,43.7,30.22,ENE,67,4.0,9.0,47,0.00,,---,0.00,VWS V14.01,2013-10-08 18:00:00,
2013-10-08 14:05:00,64.3,44.2,30.22,NE,45,2.0,2.0,48,0.00,,---,0.00,VWS V14.01,2013-10-08 18:05:00,
2013-10-08 14:10:00,64.2,43.6,30.22,ENE,62,1.0,1.0,47,0.00,,---,0.00,VWS V14.01,2013-10-08 18:10:00,
2013-10-08 14:15:00,64.2,44.7,30.22,NNE,22,3.0,3.0,49,0.00,,---,0.00,VWS V14.01,2013-10-08 18:15:00,
2013-10-08 14:20:00,64.2,44.1,30.21,NE,45,4.0,4.0,48,0.00,,---,0.00,VWS V14.01,2013-10-08 18:20:00,
2013-10-08 14:25:00,64.2,45.7,30.21,ENE,61,0.0,0.0,51,0.00,,---,0.00,VWS V14.01,2013-10-08 18:25:00,
2013-10-08 14:30:00,64.2,45.7,30.20,North,350,3.0,4.0,51,0.00,,---,0.00,VWS V14.01,2013-10-08 18:30:00,
2013-10-08 14:35:00,64.3,45.8,30.20,ENE,59,3.0,7.0,51,0.00,,---,0.00,VWS V14.01,2013-10-08 18:35:00,
2013-10-08 14:40:00,64.7,46.2,30.20,East,90,1.0,1.0,51,0.00,,---,0.00,VWS V14.01,2013-10-08 18:40:00,
2013-10-08 14:45:00,64.8,46.3,30.20,NE,42,4.0,4.0,51,0.00,,---,0.00,VWS V14.01,2013-10-08 18:45:00,
2013-10-08 14:50:00,65.0,44.3,30.20,ENE,63,6.0,6.0,47,0.00,,---,0.00,VWS V14.01,2013-10-08 18:50:00,
2013-10-08 14:55:00,65.2,44.5,30.20,NNE,16,3.0,10.0,47,0.00,,---,0.00,VWS V14.01,2013-10-08 18:55:00,
2013-10-08 15:00:00,65.2,43.3,30.20,ENE,71,2.0,3.0,45,0.00,,---,0.00,VWS V14.01,2013-10-08 19:00:00,
2013-10-08 15:05:00,65.3,43.4,30.20,ENE,71,4.0,5.0,45,0.00,,---,0.00,VWS V14.01,2013-10-08 19:05:00,
2013-10-08 15:10:00,65.3,45.7,30.21,NNE,24,3.0,3.0,49,0.00,,---,0.00,VWS V14.01,2013-10-08 19:10:00,
2013-10-08 15:15:00,65.0,44.8,30.21,NE,55,0.0,0.0,48,0.00,,---,0.00,VWS V14.01,2013-10-08 19:15:00,
2013-10-08 15:20:00,65.0,43.7,30.21,North,355,1.0,1.0,46,0.00,,---,0.00,VWS V14.01,2013-10-08 19:20:00,
2013-10-08 15:25:00,65.0,43.7,30.22,ENE,66,1.0,1.0,46,0.00,,---,0.00,VWS V14.01,2013-10-08 19:25:00,
2013-10-08 15:30:00,65.2,44.5,30.22,NNW,344,0.0,1.0,47,0.00,,---,0.00,VWS V14.01,2013-10-08 19:30:00,
2013-10-08 15:35:00,65.3,45.1,30.21,NE,55,3.0,4.0,48,0.00,,---,0.00,VWS V14.01,2013-10-08 19:35:00,
2013-10-08 15:40:00,65.5,43.0,30.20,ENE,77,4.0,4.0,44,0.00,,---,0.00,VWS V14.01,2013-10-08 19:40:00,
2013-10-08 15:45:00,65.5,46.4,30.20,NE,51,1.0,3.0,50,0.00,,---,0.00,VWS V14.01,2013-10-08 19:45:00,
2013-10-08 15:50:00,65.3,42.8,30.20,East,98,0.0,3.0,44,0.00,,---,0.00,VWS V14.01,2013-10-08 19:50:00,
2013-10-08 15:55:00,65.3,42.2,30.20,ENE,61,3.0,5.0,43,0.00,,---,0.00,VWS V14.01,2013-10-08 19:55:00,
2013-10-08 16:00:00,65.5,43.6,30.20,NNE,29,4.0,5.0,45,0.00,,---,0.00,VWS V14.01,2013-10-08 20:00:00,
2013-10-08 16:05:00,65.5,43.0,30.21,NNE,13,2.0,2.0,44,0.00,,---,0.00,VWS V14.01,2013-10-08 20:05:00,
2013-10-08 16:10:00,65.6,43.1,30.20,ENE,65,4.0,4.0,44,0.00,,---,0.00,VWS V14.01,2013-10-08 20:10:00,
2013-10-08 16:15:00,65.6,45.4,30.20,NNE,18,3.0,6.0,48,0.00,,---,0.00,VWS V14.01,2013-10-08 20:15:00,
2013-10-08 16:20:00,65.5,44.2,30.20,East,82,5.0,5.0,46,0.00,,---,0.00,VWS V14.01,2013-10-08 20:20:00,
2013-10-08 16:25:00,65.5,43.6,30.20,NE,55,2.0,5.0,45,0.00,,---,0.00,VWS V14.01,2013-10-08 20:25:00,
2013-10-08 16:30:00,65.3,41.6,30.20,ENE,59,3.0,4.0,42,0.00,,---,0.00,VWS V14.01,2013-10-08 20:30:00,
2013-10-08 16:35:00,65.3,41.6,30.21,NE,56,7.0,7.0,42,0.00,,---,0.00,VWS V14.01,2013-10-08 20:35:00,
2013-10-08 16:40:00,65.2,43.3,30.21,ENE,62,0.0,3.0,45,0.00,,---,0.00,VWS V14.01,2013-10-08 20:40:00,
2013-10-08 16:45:00,65.0,44.8,30.21,ENE,65,3.0,4.0,48,0.00,,---,0.00,VWS V14.01,2013-10-08 20:45:00,
2013-10-08 16:50:00,65.0,42.0,30.21,NE,49,2.0,3.0,43,0.00,,---,0.00,VWS V14.01,2013-10-08 20:50:00,
2013-10-08 16:55:00,65.0,42.0,30.21,North,5,5.0,6.0,43,0.00,,---,0.00,VWS V14.01,2013-10-08 20:55:00,
2013-10-08 17:00:00,65.0,41.4,30.21,ENE,76,2.0,5.0,42,0.00,,---,0.00,VWS V14.01,2013-10-08 21:00:00,
2013-10-08 17:05:00,65.2,42.2,30.21,ENE,61,2.0,6.0,43,0.00,,---,0.00,VWS V14.01,2013-10-08 21:05:00,
2013-10-08 17:10:00,65.0,43.7,30.21,ENE,60,8.0,8.0,46,0.00,,---,0.00,VWS V14.01,2013-10-08 21:10:00,
2013-10-08 17:15:00,65.0,43.2,30.21,NE,42,3.0,3.0,45,0.00,,---,0.00,VWS V14.01,2013-10-08 21:15:00,
2013-10-08 17:20:00,64.8,44.1,30.21,ENE,63,8.0,9.0,47,0.00,,---,0.00,VWS V14.01,2013-10-08 21:20:00,
2013-10-08 17:25:00,64.8,43.6,30.21,NNE,29,2.0,9.0,46,0.00,,---,0.00,VWS V14.01,2013-10-08 21:25:00,
2013-10-08 17:26:00,64.8,44.1,30.21,North,5,2.0,3.0,47,0.00,,---,0.00,VWS V14.01,2013-10-08 21:26:00,
2013-10-08 17:30:00,64.8,43.0,30.20,ENE,63,1.0,6.0,45,0.00,,---,0.00,VWS V14.01,2013-10-08 21:30:00,
2013-10-08 17:31:00,64.8,43.6,30.20,ENE,63,2.0,3.0,46,0.00,,---,0.00,VWS V14.01,2013-10-08 21:31:00,
2013-10-08 17:35:00,64.8,44.7,30.20,North,360,1.0,4.0,48,0.00,,---,0.00,VWS V14.01,2013-10-08 21:35:00,
2013-10-08 17:36:00,64.8,44.7,30.20,North,5,1.0,1.0,48,0.00,,---,0.00,VWS V14.01,2013-10-08 21:36:00,
2013-10-08 17:40:00,64.8,46.3,30.20,NE,44,1.0,3.0,51,0.00,,---,0.00,VWS V14.01,2013-10-08 21:40:00,
2013-10-08 17:41:00,64.8,45.2,30.21,NE,44,1.0,1.0,49,0.00,,---,0.00,VWS V14.01,2013-10-08 21:41:00,
2013-10-08 17:45:00,64.7,44.0,30.21,NNE,15,2.0,4.0,47,0.00,,---,0.00,VWS V14.01,2013-10-08 21:45:00,
2013-10-08 17:46:00,64.7,44.0,30.21,NNE,15,1.0,2.0,47,0.00,,---,0.00,VWS V14.01,2013-10-08 21:46:00,
2013-10-08 17:50:00,64.5,42.7,30.21,NE,49,5.0,5.0,45,0.00,,---,0.00,VWS V14.01,2013-10-08 21:50:00,
2013-10-08 17:51:00,64.5,42.1,30.21,ENE,76,4.0,7.0,44,0.00,,---,0.00,VWS V14.01,2013-10-08 21:51:00,
2013-10-08 17:55:00,64.5,44.9,30.21,ENE,69,2.0,7.0,49,0.00,,---,0.00,VWS V14.01,2013-10-08 21:55:00,
2013-10-08 17:56:00,64.3,43.1,30.22,NE,51,0.0,3.0,46,0.00,,---,0.00,VWS V14.01,2013-10-08 21:56:00,
2013-10-08 18:00:00,64.2,43.0,30.22,NNE,29,1.0,3.0,46,0.00,,---,0.00,VWS V14.01,2013-10-08 22:00:00,
2013-10-08 18:01:00,64.2,43.0,30.22,NE,48,1.0,5.0,46,0.00,,---,0.00,VWS V14.01,2013-10-08 22:01:00,
2013-10-08 18:05:00,64.0,42.3,30.22,NE,51,2.0,5.0,45,0.00,,---,0.00,VWS V14.01,2013-10-08 22:05:00,
2013-10-08 18:06:00,64.0,42.8,30.22,NE,53,3.0,5.0,46,0.00,,---,0.00,VWS V14.01,2013-10-08 22:06:00,
2013-10-08 18:10:00,63.9,43.3,30.22,NE,51,2.0,6.0,47,0.00,,---,0.00,VWS V14.01,2013-10-08 22:10:00,
2013-10-08 18:11:00,63.9,42.7,30.22,ENE,63,2.0,5.0,46,0.00,,---,0.00,VWS V14.01,2013-10-08 22:11:00,
2013-10-08 18:15:00,63.7,43.1,30.22,ENE,58,0.0,5.0,47,0.00,,---,0.00,VWS V14.01,2013-10-08 22:15:00,
2013-10-08 18:16:00,63.7,43.1,30.22,ENE,65,2.0,3.0,47,0.00,,---,0.00,VWS V14.01,2013-10-08 22:16:00,
2013-10-08 18:20:00,63.5,42.9,30.22,ENE,69,1.0,3.0,47,0.00,,---,0.00,VWS V14.01,2013-10-08 22:20:00,
2013-10-08 18:21:00,63.5,43.5,30.22,East,81,3.0,4.0,48,0.00,,---,0.00,VWS V14.01,2013-10-08 22:21:00,
2013-10-08 18:25:00,63.4,42.8,30.22,ENE,63,3.0,4.0,47,0.00,,---,0.00,VWS V14.01,2013-10-08 22:25:00,
2013-10-08 18:26:00,63.4,43.4,30.22,ENE,61,1.0,3.0,48,0.00,,---,0.00,VWS V14.01,2013-10-08 22:26:00,
2013-10-08 18:30:00,63.2,43.2,30.22,NNE,30,0.0,4.0,48,0.00,,---,0.00,VWS V14.01,2013-10-08 22:30:00,
2013-10-08 18:31:00,63.2,43.7,30.22,NNE,31,1.0,1.0,49,0.00,,---,0.00,VWS V14.01,2013-10-08 22:31:00,
2013-10-08 18:35:00,63.1,44.7,30.22,ENE,67,0.0,3.0,51,0.00,,---,0.00,VWS V14.01,2013-10-08 22:35:00,
2013-10-08 18:36:00,62.9,44.0,30.22,ENE,67,0.0,1.0,50,0.00,,---,0.00,VWS V14.01,2013-10-08 22:36:00,
2013-10-08 18:40:00,62.7,45.3,30.23,ENE,67,0.0,1.0,53,0.00,,---,0.00,VWS V14.01,2013-10-08 22:40:00,
2013-10-08 18:41:00,62.7,45.3,30.23,ENE,67,0.0,0.0,53,0.00,,---,0.00,VWS V14.01,2013-10-08 22:41:00,
2013-10-08 18:45:00,62.6,46.7,30.23,ENE,67,0.0,0.0,56,0.00,,---,0.00,VWS V14.01,2013-10-08 22:45:00,
2013-10-08 18:46:00,62.4,46.5,30.23,ENE,67,0.0,0.0,56,0.00,,---,0.00,VWS V14.01,2013-10-08 22:46:00,
2013-10-08 18:50:00,62.3,46.9,30.23,ENE,67,0.0,0.0,57,0.00,,---,0.00,VWS V14.01,2013-10-08 22:50:00,
2013-10-08 18:51:00,62.3,46.9,30.23,ENE,67,0.0,0.0,57,0.00,,---,0.00,VWS V14.01,2013-10-08 22:51:00,
2013-10-08 18:55:00,62.0,46.6,30.23,ENE,67,0.0,0.0,57,0.00,,---,0.00,VWS V14.01,2013-10-08 22:55:00,
2013-10-08 18:56:00,61.8,46.0,30.23,ENE,67,0.0,0.0,56,0.00,,---,0.00,VWS V14.01,2013-10-08 22:56:00,
2013-10-08 19:00:00,61.6,46.2,30.22,ENE,67,0.0,0.0,57,0.00,,---,0.00,VWS V14.01,2013-10-08 23:00:00,
2013-10-08 19:01:00,61.5,47.1,30.23,ENE,67,0.0,0.0,59,0.00,,---,0.00,VWS V14.01,2013-10-08 23:01:00,
2013-10-08 19:05:00,61.2,46.8,30.23,ENE,67,0.0,0.0,59,0.00,,---,0.00,VWS V14.01,2013-10-08 23:05:00,
2013-10-08 19:06:00,61.2,46.3,30.23,ENE,67,0.0,0.0,58,0.00,,---,0.00,VWS V14.01,2013-10-08 23:06:00,
2013-10-08 19:10:00,60.9,45.6,30.23,ENE,67,0.0,0.0,57,0.00,,---,0.00,VWS V14.01,2013-10-08 23:10:00,
2013-10-08 19:12:00,60.7,45.8,30.23,ENE,67,0.0,0.0,58,0.00,,---,0.00,VWS V14.01,2013-10-08 23:12:00,
2013-10-08 19:15:00,60.5,46.1,30.24,ENE,67,0.0,0.0,59,0.00,,---,0.00,VWS V14.01,2013-10-08 23:15:00,
2013-10-08 19:17:00,60.4,46.5,30.24,ENE,67,0.0,0.0,60,0.00,,---,0.00,VWS V14.01,2013-10-08 23:17:00,
2013-10-08 19:20:00,60.1,47.5,30.24,ENE,67,0.0,0.0,63,0.00,,---,0.00,VWS V14.01,2013-10-08 23:20:00,
2013-10-08 19:22:00,59.9,47.3,30.24,ENE,67,0.0,0.0,63,0.00,,---,0.00,VWS V14.01,2013-10-08 23:22:00,
2013-10-08 19:25:00,59.8,47.2,30.24,ENE,67,0.0,0.0,63,0.00,,---,0.00,VWS V14.01,2013-10-08 23:25:00,
2013-10-08 19:27:00,59.6,47.0,30.24,ENE,67,0.0,0.0,63,0.00,,---,0.00,VWS V14.01,2013-10-08 23:27:00,
2013-10-08 19:30:00,59.3,47.5,30.24,ENE,67,0.0,0.0,65,0.00,,---,0.00,VWS V14.01,2013-10-08 23:30:00,
2013-10-08 19:32:00,59.2,47.5,30.23,ENE,67,0.0,0.0,65,0.00,,---,0.00,VWS V14.01,2013-10-08 23:32:00,
2013-10-08 19:35:00,58.9,46.8,30.23,ENE,67,0.0,0.0,64,0.00,,---,0.00,VWS V14.01,2013-10-08 23:35:00,
2013-10-08 19:37:00,58.7,46.2,30.23,ENE,67,0.0,0.0,63,0.00,,---,0.00,VWS V14.01,2013-10-08 23:37:00,
2013-10-08 19:40:00,58.4,46.3,30.23,ENE,67,0.0,0.0,64,0.00,,---,0.00,VWS V14.01,2013-10-08 23:40:00,
2013-10-08 19:42:00,58.3,46.2,30.24,ENE,67,0.0,0.0,64,0.00,,---,0.00,VWS V14.01,2013-10-08 23:42:00,
2013-10-08 19:45:00,58.1,46.4,30.24,ENE,67,0.0,0.0,65,0.00,,---,0.00,VWS V14.01,2013-10-08 23:45:00,
2013-10-08 19:47:00,58.0,45.9,30.24,ENE,67,0.0,0.0,64,0.00,,---,0.00,VWS V14.01,2013-10-08 23:47:00,
2013-10-08 19:50:00,57.8,46.9,30.24,ENE,67,1.0,2.0,67,0.00,,---,0.00,VWS V14.01,2013-10-08 23:50:00,
2013-10-08 19:52:00,57.5,47.0,30.24,ENE,67,0.0,1.0,68,0.00,,---,0.00,VWS V14.01,2013-10-08 23:52:00,
2013-10-08 19:55:00,57.3,46.5,30.25,ENE,67,0.0,1.0,67,0.00,,---,0.00,VWS V14.01,2013-10-08 23:55:00,
2013-10-08 19:57:00,57.2,46.4,30.25,ENE,67,0.0,0.0,67,0.00,,---,0.00,VWS V14.01,2013-10-08 23:57:00,
2013-10-08 20:00:00,57.0,45.8,30.25,ENE,67,0.0,0.0,66,0.00,,---,0.00,VWS V14.01,2013-10-09 00:00:00,
2013-10-08 20:02:00,56.9,45.7,30.24,ENE,67,0.0,0.0,66,0.00,,---,0.00,VWS V14.01,2013-10-09 00:02:00,
2013-10-08 20:05:00,56.7,47.0,30.24,ENE,67,0.0,0.0,70,0.00,,---,0.00,VWS V14.01,2013-10-09 00:05:00,
2013-10-08 20:07:00,56.6,47.3,30.24,ENE,67,0.0,0.0,71,0.00,,---,0.00,VWS V14.01,2013-10-09 00:07:00,
2013-10-08 20:10:00,56.5,47.2,30.24,ENE,67,0.0,0.0,71,0.00,,---,0.00,VWS V14.01,2013-10-09 00:10:00,
2013-10-08 20:12:00,56.3,47.4,30.24,ENE,67,0.0,0.0,72,0.00,,---,0.00,VWS V14.01,2013-10-09 00:12:00,
2013-10-08 20:15:00,56.2,46.9,30.24,ENE,67,0.0,0.0,71,0.00,,---,0.00,VWS V14.01,2013-10-09 00:15:00,
2013-10-08 20:17:00,56.0,46.7,30.24,ENE,67,0.0,0.0,71,0.00,,---,0.00,VWS V14.01,2013-10-09 00:17:00,
2013-10-08 20:20:00,56.0,46.4,30.25,ENE,67,0.0,0.0,70,0.00,,---,0.00,VWS V14.01,2013-10-09 00:20:00,
2013-10-08 20:22:00,55.9,47.4,30.25,ENE,67,0.0,0.0,73,0.00,,---,0.00,VWS V14.01,2013-10-09 00:22:00,
2013-10-08 20:25:00,55.7,47.9,30.25,ENE,67,0.0,0.0,75,0.00,,---,0.00,VWS V14.01,2013-10-09 00:25:00,
2013-10-08 20:27:00,55.6,47.5,30.25,ENE,67,0.0,0.0,74,0.00,,---,0.00,VWS V14.01,2013-10-09 00:27:00,
2013-10-08 20:30:00,55.6,47.5,30.25,ENE,67,0.0,0.0,74,0.00,,---,0.00,VWS V14.01,2013-10-09 00:30:00,
2013-10-08 20:32:00,55.4,46.9,30.25,ENE,67,0.0,0.0,73,0.00,,---,0.00,VWS V14.01,2013-10-09 00:32:00,
2013-10-08 20:35:00,55.3,46.8,30.25,ENE,67,0.0,0.0,73,0.00,,---,0.00,VWS V14.01,2013-10-09 00:35:00,
2013-10-08 20:37:00,55.1,46.6,30.25,ENE,67,0.0,0.0,73,0.00,,---,0.00,VWS V14.01,2013-10-09 00:37:00,
2013-10-08 20:40:00,55.1,46.6,30.25,ENE,67,0.0,0.0,73,0.00,,---,0.00,VWS V14.01,2013-10-09 00:40:00,
2013-10-08 20:42:00,55.0,46.5,30.25,ENE,67,0.0,0.0,73,0.00,,---,0.00,VWS V14.01,2013-10-09 00:42:00,
2013-10-08 20:45:00,54.8,46.3,30.25,ENE,67,0.0,0.0,73,0.00,,---,0.00,VWS V14.01,2013-10-09 00:45:00,
2013-10-08 20:47:00,54.7,46.6,30.25,ENE,67,0.0,0.0,74,0.00,,---,0.00,VWS V14.01,2013-10-09 00:47:00,
2013-10-08 20:50:00,54.7,46.9,30.25,ENE,67,0.0,0.0,75,0.00,,---,0.00,VWS V14.01,2013-10-09 00:50:00,
2013-10-08 20:52:00,54.5,46.8,30.25,ENE,67,0.0,0.0,75,0.00,,---,0.00,VWS V14.01,2013-10-09 00:52:00,
2013-10-08 20:55:00,54.5,46.8,30.25,ENE,67,0.0,0.0,75,0.00,,---,0.00,VWS V14.01,2013-10-09 00:55:00,
2013-10-08 20:57:00,54.4,46.7,30.25,ENE,67,0.0,0.0,75,0.00,,---,0.00,VWS V14.01,2013-10-09 00:57:00,
2013-10-08 21:00:00,54.2,46.5,30.25,ENE,67,0.0,0.0,75,0.00,,---,0.00,VWS V14.01,2013-10-09 01:00:00,
2013-10-08 21:02:00,54.2,46.5,30.25,ENE,67,0.0,0.0,75,0.00,,---,0.00,VWS V14.01,2013-10-09 01:02:00,
2013-10-08 21:05:00,54.1,46.4,30.25,ENE,67,0.0,0.0,75,0.00,,---,0.00,VWS V14.01,2013-10-09 01:05:00,
2013-10-08 21:07:00,54.1,46.4,30.25,ENE,67,0.0,0.0,75,0.00,,---,0.00,VWS V14.01,2013-10-09 01:07:00,
2013-10-08 21:10:00,53.9,46.9,30.26,ENE,67,0.0,1.0,77,0.00,,---,0.00,VWS V14.01,2013-10-09 01:10:00,
2013-10-08 21:12:00,53.8,46.8,30.26,ENE,67,0.0,0.0,77,0.00,,---,0.00,VWS V14.01,2013-10-09 01:12:00,
2013-10-08 21:15:00,53.8,46.8,30.26,ENE,67,0.0,0.0,77,0.00,,---,0.00,VWS V14.01,2013-10-09 01:15:00,
2013-10-08 21:17:00,53.6,46.6,30.26,ENE,67,0.0,0.0,77,0.00,,---,0.00,VWS V14.01,2013-10-09 01:17:00,
2013-10-08 21:20:00,53.5,46.8,30.26,ENE,67,0.0,0.0,78,0.00,,---,0.00,VWS V14.01,2013-10-09 01:20:00,
2013-10-08 21:22:00,53.5,46.8,30.26,ENE,67,0.0,0.0,78,0.00,,---,0.00,VWS V14.01,2013-10-09 01:22:00,
2013-10-08 21:25:00,53.3,46.6,30.26,ENE,67,0.0,0.0,78,0.00,,---,0.00,VWS V14.01,2013-10-09 01:25:00,
2013-10-08 21:27:00,53.3,47.0,30.26,ENE,67,0.0,0.0,79,0.00,,---,0.00,VWS V14.01,2013-10-09 01:27:00,
2013-10-08 21:30:00,53.2,47.2,30.26,ENE,67,0.0,0.0,80,0.00,,---,0.00,VWS V14.01,2013-10-09 01:30:00,
2013-10-08 21:33:00,53.2,47.2,30.26,ENE,67,0.0,0.0,80,0.00,,---,0.00,VWS V14.01,2013-10-09 01:33:00,
2013-10-08 21:35:00,53.1,46.8,30.26,ENE,67,0.0,0.0,79,0.00,,---,0.00,VWS V14.01,2013-10-09 01:35:00,
2013-10-08 21:38:00,52.9,46.6,30.26,ENE,67,0.0,0.0,79,0.00,,---,0.00,VWS V14.01,2013-10-09 01:38:00,
2013-10-08 21:40:00,52.9,46.6,30.26,ENE,67,0.0,0.0,79,0.00,,---,0.00,VWS V14.01,2013-10-09 01:40:00,
2013-10-08 21:43:00,52.9,46.9,30.26,ENE,67,0.0,0.0,80,0.00,,---,0.00,VWS V14.01,2013-10-09 01:43:00,
2013-10-08 21:45:00,52.8,46.8,30.26,ENE,67,0.0,0.0,80,0.00,,---,0.00,VWS V14.01,2013-10-09 01:45:00,
2013-10-08 21:48:00,52.8,46.8,30.26,ENE,67,0.0,0.0,80,0.00,,---,0.00,VWS V14.01,2013-10-09 01:48:00,
2013-10-08 21:50:00,52.6,46.6,30.26,ENE,67,0.0,0.0,80,0.00,,---,0.00,VWS V14.01,2013-10-09 01:50:00,
2013-10-08 21:53:00,52.6,46.9,30.26,ENE,67,0.0,0.0,81,0.00,,---,0.00,VWS V14.01,2013-10-09 01:53:00,
2013-10-08 21:55:00,52.5,47.2,30.26,ENE,67,0.0,0.0,82,0.00,,---,0.00,VWS V14.01,2013-10-09 01:55:00,
2013-10-08 21:58:00,52.5,46.5,30.26,ENE,67,0.0,0.0,80,0.00,,---,0.00,VWS V14.01,2013-10-09 01:58:00,
2013-10-08 22:00:00,52.3,46.0,30.26,ENE,67,0.0,0.0,79,0.00,,---,0.00,VWS V14.01,2013-10-09 02:00:00,
2013-10-08 22:03:00,52.3,46.3,30.25,ENE,67,0.0,0.0,80,0.00,,---,0.00,VWS V14.01,2013-10-09 02:03:00,
2013-10-08 22:05:00,52.3,46.3,30.26,ENE,67,0.0,1.0,80,0.00,,---,0.00,VWS V14.01,2013-10-09 02:05:00,
2013-10-08 22:08:00,52.3,46.3,30.26,ENE,67,0.0,0.0,80,0.00,,---,0.00,VWS V14.01,2013-10-09 02:08:00,
2013-10-08 22:10:00,52.2,46.2,30.26,ENE,67,0.0,0.0,80,0.00,,---,0.00,VWS V14.01,2013-10-09 02:10:00,
2013-10-08 22:13:00,52.2,46.2,30.26,ENE,67,0.0,0.0,80,0.00,,---,0.00,VWS V14.01,2013-10-09 02:13:00,
2013-10-08 22:15:00,52.2,46.5,30.26,ENE,67,0.0,0.0,81,0.00,,---,0.00,VWS V14.01,2013-10-09 02:15:00,
2013-10-08 22:18:00,52.2,46.5,30.26,ENE,67,0.0,0.0,81,0.00,,---,0.00,VWS V14.01,2013-10-09 02:18:00,
2013-10-08 22:20:00,52.0,46.7,30.26,ENE,67,0.0,0.0,82,0.00,,---,0.00,VWS V14.01,2013-10-09 02:20:00,
2013-10-08 22:23:00,52.0,46.7,30.26,ENE,67,0.0,0.0,82,0.00,,---,0.00,VWS V14.01,2013-10-09 02:23:00,
2013-10-08 22:25:00,52.0,46.7,30.26,ENE,67,0.0,0.0,82,0.00,,---,0.00,VWS V14.01,2013-10-09 02:25:00,
2013-10-08 22:28:00,51.9,46.6,30.26,ENE,67,0.0,0.0,82,0.00,,---,0.00,VWS V14.01,2013-10-09 02:28:00,
2013-10-08 22:30:00,51.9,46.6,30.26,ENE,67,0.0,0.0,82,0.00,,---,0.00,VWS V14.01,2013-10-09 02:30:00,
2013-10-08 22:33:00,51.7,46.4,30.26,ENE,67,0.0,0.0,82,0.00,,---,0.00,VWS V14.01,2013-10-09 02:33:00,
2013-10-08 22:35:00,51.7,46.4,30.26,ENE,67,0.0,0.0,82,0.00,,---,0.00,VWS V14.01,2013-10-09 02:35:00,
2013-10-08 22:38:00,51.7,46.4,30.27,ENE,67,0.0,0.0,82,0.00,,---,0.00,VWS V14.01,2013-10-09 02:38:00,
2013-10-08 22:40:00,51.7,46.4,30.27,ENE,67,0.0,0.0,82,0.00,,---,0.00,VWS V14.01,2013-10-09 02:40:00,
2013-10-08 22:43:00,51.6,46.3,30.27,ENE,67,0.0,0.0,82,0.00,,---,0.00,VWS V14.01,2013-10-09 02:43:00,
2013-10-08 22:45:00,51.6,46.6,30.27,ENE,67,0.0,0.0,83,0.00,,---,0.00,VWS V14.01,2013-10-09 02:45:00,
2013-10-08 22:48:00,51.4,46.4,30.27,ENE,67,0.0,0.0,83,0.00,,---,0.00,VWS V14.01,2013-10-09 02:48:00,
2013-10-08 22:50:00,51.4,46.4,30.26,ENE,67,0.0,0.0,83,0.00,,---,0.00,VWS V14.01,2013-10-09 02:50:00,
2013-10-08 22:53:00,51.4,46.4,30.27,ENE,67,0.0,0.0,83,0.00,,---,0.00,VWS V14.01,2013-10-09 02:53:00,
2013-10-08 22:55:00,51.3,46.3,30.27,ENE,67,0.0,0.0,83,0.00,,---,0.00,VWS V14.01,2013-10-09 02:55:00,
2013-10-08 22:58:00,51.3,46.3,30.27,ENE,67,0.0,0.0,83,0.00,,---,0.00,VWS V14.01,2013-10-09 02:58:00,
2013-10-08 23:00:00,51.3,46.3,30.27,ENE,67,0.0,0.0,83,0.00,,---,0.00,VWS V14.01,2013-10-09 03:00:00,
2013-10-08 23:03:00,51.1,46.1,30.26,ENE,67,0.0,0.0,83,0.00,,---,0.00,VWS V14.01,2013-10-09 03:03:00,
2013-10-08 23:05:00,51.1,46.1,30.26,ENE,67,0.0,0.0,83,0.00,,---,0.00,VWS V14.01,2013-10-09 03:05:00,
2013-10-08 23:08:00,51.1,46.1,30.26,ENE,67,0.0,0.0,83,0.00,,---,0.00,VWS V14.01,2013-10-09 03:08:00,
2013-10-08 23:10:00,51.0,46.0,30.26,ENE,67,0.0,0.0,83,0.00,,---,0.00,VWS V14.01,2013-10-09 03:10:00,
2013-10-08 23:13:00,51.0,46.3,30.26,ENE,67,0.0,0.0,84,0.00,,---,0.00,VWS V14.01,2013-10-09 03:13:00,
2013-10-08 23:15:00,51.0,46.3,30.26,ENE,67,0.0,0.0,84,0.00,,---,0.00,VWS V14.01,2013-10-09 03:15:00,
2013-10-08 23:18:00,50.8,46.2,30.26,ENE,67,0.0,0.0,84,0.00,,---,0.00,VWS V14.01,2013-10-09 03:18:00,
2013-10-08 23:20:00,50.8,46.2,30.26,ENE,67,0.0,0.0,84,0.00,,---,0.00,VWS V14.01,2013-10-09 03:20:00,
2013-10-08 23:23:00,50.8,46.2,30.26,ENE,67,0.0,0.0,84,0.00,,---,0.00,VWS V14.01,2013-10-09 03:23:00,
2013-10-08 23:25:00,50.7,46.0,30.26,ENE,67,0.0,0.0,84,0.00,,---,0.00,VWS V14.01,2013-10-09 03:25:00,
2013-10-08 23:28:00,50.7,46.0,30.26,ENE,67,0.0,0.0,84,0.00,,---,0.00,VWS V14.01,2013-10-09 03:28:00,
2013-10-08 23:30:00,50.7,46.0,30.26,ENE,67,0.0,0.0,84,0.00,,---,0.00,VWS V14.01,2013-10-09 03:30:00,
2013-10-08 23:33:00,50.5,45.8,30.26,ENE,67,0.0,0.0,84,0.00,,---,0.00,VWS V14.01,2013-10-09 03:33:00,
2013-10-08 23:35:00,50.5,45.8,30.27,ENE,67,0.0,0.0,84,0.00,,---,0.00,VWS V14.01,2013-10-09 03:35:00,
2013-10-08 23:38:00,50.5,46.2,30.27,ENE,67,0.0,0.0,85,0.00,,---,0.00,VWS V14.01,2013-10-09 03:38:00,
2013-10-08 23:40:00,50.4,46.1,30.27,ENE,67,0.0,0.0,85,0.00,,---,0.00,VWS V14.01,2013-10-09 03:40:00,
2013-10-08 23:43:00,50.4,45.8,30.27,ENE,67,0.0,0.0,84,0.00,,---,0.00,VWS V14.01,2013-10-09 03:43:00,
2013-10-08 23:45:00,50.4,45.8,30.27,ENE,67,0.0,0.0,84,0.00,,---,0.00,VWS V14.01,2013-10-09 03:45:00,
2013-10-08 23:48:00,50.2,45.6,30.27,ENE,67,0.0,0.0,84,0.00,,---,0.00,VWS V14.01,2013-10-09 03:48:00,
2013-10-08 23:50:00,50.2,45.9,30.27,ENE,67,0.0,0.0,85,0.00,,---,0.00,VWS V14.01,2013-10-09 03:50:00,
2013-10-08 23:53:00,50.1,45.8,30.27,ENE,67,0.0,0.0,85,0.00,,---,0.00,VWS V14.01,2013-10-09 03:53:00,
2013-10-08 23:55:00,50.1,45.8,30.27,ENE,67,0.0,0.0,85,0.00,,---,0.00,VWS V14.01,2013-10-09 03:55:00,
2013-10-08 23:58:00,50.1,45.8,30.27,ENE,67,0.0,0.0,85,0.00,,---,0.00,VWS V14.01,2013-10-09 03:58:00,